Time;durP1;ratioP1;P1;durP2;ratioP2;P2;SDS_P1;SDS_P2;PMS_P1;PMS_P2;Temp;Humidity;BMP_temperature;BMP_pressure;BME280_temperature;BME280_humidity;BME280_pressure;Samples;Min_cycle;Max_cycle;Signal;HPM_P1;HPM_P2
2022/11/22 00:01:38;;;;;;;72.12;23.70;;;;;;;1.28;100.00;97750.91;4264907;33;20034;-71
2022/11/22 00:04:04;;;;;;;67.60;22.83;;;;;;;1.23;100.00;97779.94;4243736;33;20060;-71
2022/11/22 00:06:31;;;;;;;77.72;25.77;;;;;;;1.02;100.00;97744.03;4243755;33;20077;-70
2022/11/22 00:08:57;;;;;;;87.93;24.80;;;;;;;1.53;100.00;97781.84;4241415;33;20018;-71
2022/11/22 00:11:24;;;;;;;89.15;24.73;;;;;;;1.48;100.00;97776.41;4243436;33;20062;-71
2022/11/22 00:13:50;;;;;;;72.43;23.15;;;;;;;1.57;100.00;97770.56;4242312;33;20042;-71
2022/11/22 00:16:16;;;;;;;72.15;22.37;;;;;;;1.38;100.00;97780.38;4242750;33;20411;-71
2022/11/22 00:18:43;;;;;;;73.35;23.02;;;;;;;1.42;100.00;97784.22;4240047;33;20170;-70
2022/11/22 00:21:09;;;;;;;70.55;25.12;;;;;;;1.41;100.00;97756.06;4242557;33;20039;-70
2022/11/22 00:23:35;;;;;;;74.80;25.92;;;;;;;1.44;100.00;97787.44;4242259;33;20048;-70
2022/11/22 00:26:02;;;;;;;65.47;21.20;;;;;;;1.21;100.00;97750.16;4243000;33;20072;-71
2022/11/22 00:28:29;;;;;;;72.68;23.95;;;;;;;1.38;100.00;97792.81;4243287;33;20042;-71
2022/11/22 00:30:55;;;;;;;71.32;25.40;;;;;;;1.55;100.00;97798.37;4242607;33;20042;-71
2022/11/22 00:33:22;;;;;;;65.72;21.67;;;;;;;1.13;100.00;97800.81;4244001;33;20073;-70
2022/11/22 00:35:50;;;;;;;72.62;21.83;;;;;;;1.33;100.00;97805.94;4262015;33;20033;-71
2022/11/22 00:38:16;;;;;;;70.87;20.83;;;;;;;1.08;100.00;97796.97;4266427;33;20055;-71
2022/11/22 00:40:43;;;;;;;81.90;24.00;;;;;;;0.84;100.00;97813.72;4266458;33;20056;-70
2022/11/22 00:43:09;;;;;;;73.43;21.98;;;;;;;0.57;100.00;97768.87;4266937;33;20363;-71
2022/11/22 00:45:35;;;;;;;80.53;22.73;;;;;;;0.71;100.00;97826.03;4268225;33;20071;-70
2022/11/22 00:48:02;;;;;;;153.30;47.67;;;;;;;0.90;100.00;97791.66;4269428;33;20068;-70
2022/11/22 00:50:29;;;;;;;95.90;31.20;;;;;;;1.12;100.00;97821.22;4258461;33;20372;-70
2022/11/22 00:52:55;;;;;;;254.65;62.65;;;;;;;1.31;100.00;97830.03;4257991;33;20044;-70
2022/11/22 00:55:22;;;;;;;143.57;39.65;;;;;;;0.95;100.00;97836.87;4255140;33;20454;-70
2022/11/22 00:57:48;;;;;;;150.70;45.17;;;;;;;1.02;100.00;97837.63;4265731;33;20050;-70
2022/11/22 03:01:15;;;;;;;58.78;19.52;;;;;;;1.43;100.00;97815.00;4673687;28;20061;-69
2022/11/22 03:03:42;;;;;;;50.17;17.67;;;;;;;1.14;100.00;97807.75;4264062;33;20084;-70
2022/11/22 03:06:08;;;;;;;67.05;19.90;;;;;;;1.16;100.00;97811.00;4268260;33;20926;-70
2022/11/22 03:08:34;;;;;;;63.50;20.05;;;;;;;0.88;100.00;97783.13;4268004;33;20038;-70
2022/11/22 03:11:01;;;;;;;49.40;16.52;;;;;;;1.12;100.00;97813.28;4267314;33;20087;-70
2022/11/22 03:13:27;;;;;;;58.28;17.50;;;;;;;1.35;100.00;97812.63;4268487;33;20034;-70
2022/11/22 03:15:53;;;;;;;53.20;18.62;;;;;;;0.75;100.00;97777.91;4265999;33;20046;-70
2022/11/22 03:18:21;;;;;;;59.63;19.98;;;;;;;0.43;100.00;97770.03;4265441;33;20087;-70
2022/11/22 03:20:47;;;;;;;53.15;19.15;;;;;;;0.77;100.00;97786.47;4254542;33;20038;-69
2022/11/22 03:23:13;;;;;;;71.12;21.95;;;;;;;0.92;100.00;97772.88;4254622;33;20043;-70
2022/11/22 03:25:40;;;;;;;51.22;17.87;;;;;;;0.99;100.00;97790.34;4250762;33;20419;-69
2022/11/22 03:28:06;;;;;;;57.30;20.73;;;;;;;0.46;100.00;97770.41;4249942;33;20053;-69
2022/11/22 03:30:33;;;;;;;56.72;18.75;;;;;;;0.65;100.00;97789.00;4252174;33;20038;-70
2022/11/22 03:32:59;;;;;;;51.55;16.52;;;;;;;0.24;100.00;97750.59;4252422;33;20053;-70
2022/11/22 03:35:26;;;;;;;51.85;17.05;;;;;;;0.61;100.00;97793.13;4251290;33;20060;-69
2022/11/22 03:37:52;;;;;;;49.83;17.20;;;;;;;0.67;100.00;97793.06;4251261;33;20089;-69
2022/11/22 03:40:19;;;;;;;52.15;16.40;;;;;;;0.74;100.00;97763.06;4251102;33;20487;-70
2022/11/22 03:42:46;;;;;;;56.22;17.20;;;;;;;1.11;100.00;97776.37;4250908;33;20058;-70
2022/11/22 03:45:13;;;;;;;47.88;17.00;;;;;;;0.83;100.00;97785.59;4248990;33;20055;-70
2022/11/22 03:47:39;;;;;;;50.50;18.40;;;;;;;0.58;100.00;97789.06;4251452;33;20034;-70
2022/11/22 03:50:12;;;;;;;;;;;;;;;0.61;100.00;97786.00;4250680;33;20060;-70
2022/11/22 03:52:38;;;;;;;54.05;15.70;;;;;;;0.74;100.00;97789.56;4252104;33;19957;-70
2022/11/22 03:55:05;;;;;;;49.35;15.05;;;;;;;0.59;100.00;97805.75;4251504;33;20361;-70
2022/11/22 03:57:31;;;;;;;52.62;15.45;;;;;;;0.24;100.00;97801.72;4235834;33;20046;-70
2022/11/22 03:59:57;;;;;;;38.25;14.87;;;;;;;0.15;100.00;97789.75;4235996;33;20064;-69
2022/11/22 04:02:24;;;;;;;52.90;17.48;;;;;;;0.27;100.00;97814.53;4238664;33;20100;-70
2022/11/22 04:04:51;;;;;;;51.63;16.67;;;;;;;0.32;100.00;97817.34;4252179;33;20054;-70
2022/11/22 04:07:17;;;;;;;43.53;15.10;;;;;;;0.53;100.00;97820.69;4249924;33;20401;-70
2022/11/22 04:09:43;;;;;;;54.00;18.23;;;;;;;0.12;100.00;97774.31;4237436;33;20068;-70
2022/11/22 04:12:10;;;;;;;51.75;16.77;;;;;;;0.62;100.00;97827.31;4231790;33;20047;-69
2022/11/22 04:17:39;;;;;;;60.30;16.17;;;;;;;0.57;100.00;97821.87;4211415;34;20154;-70
2022/11/22 04:22:57;;;;;;;48.85;16.45;;;;;;;0.70;100.00;97835.03;4211851;34;20065;-70
2022/11/22 04:25:26;;;;;;;57.88;18.15;;;;;;;0.69;100.00;97817.50;4206227;34;20061;-69
2022/11/22 04:27:54;;;;;;;48.42;15.77;;;;;;;0.57;100.00;97779.47;4212137;34;20426;-70
2022/11/22 04:30:21;;;;;;;55.20;19.42;;;;;;;0.62;100.00;97803.47;4223645;34;20046;-70
2022/11/22 04:32:47;;;;;;;52.67;17.08;;;;;;;0.29;100.00;97823.06;4223899;34;20426;-70
2022/11/22 04:35:15;;;;;;;52.08;17.23;;;;;;;0.36;100.00;97791.25;4222388;34;20035;-69
2022/11/22 04:37:48;;;;;;;50.55;16.08;;;;;;;0.70;100.00;97828.91;4229219;33;20121;-70
2022/11/22 04:40:14;;;;;;;46.55;16.27;;;;;;;0.78;100.00;97793.38;4239043;33;20394;-70
2022/11/22 04:45:26;;;;;;;49.15;17.87;;;;;;;0.64;100.00;97776.78;4252146;33;20061;-70
2022/11/22 04:47:59;;;;;;;50.03;19.87;;;;;;;0.65;100.00;97813.66;4270935;33;20050;-70
2022/11/22 04:53:13;;;;;;;34.53;14.77;;;;;;;0.78;100.00;97809.28;4245816;33;20075;-70
2022/11/22 04:55:39;;;;;;;50.20;18.27;;;;;;;0.75;100.00;97762.84;4254328;33;20088;-70
2022/11/22 04:58:06;;;;;;;50.28;16.90;;;;;;;1.07;100.00;97803.31;4245173;33;20076;-70
2022/11/22 05:00:33;;;;;;;59.53;20.73;;;;;;;0.94;100.00;97811.38;4237070;33;20356;-69
2022/11/22 05:03:00;;;;;;;48.53;16.95;;;;;;;0.99;100.00;97793.00;4247822;33;20097;-71
2022/11/22 05:05:27;;;;;;;48.80;17.45;;;;;;;0.78;100.00;97803.97;4253349;33;20033;-70
2022/11/22 05:07:54;;;;;;;49.78;16.17;;;;;;;0.86;100.00;97811.66;4254861;33;20342;-70
2022/11/22 05:10:21;;;;;;;50.20;17.65;;;;;;;0.58;100.00;97799.66;4253781;33;20034;-69
2022/11/22 05:12:47;;;;;;;54.63;18.55;;;;;;;0.70;100.00;97773.28;4238854;33;20052;-70
2022/11/22 05:15:14;;;;;;;69.47;22.40;;;;;;;0.43;100.00;97770.84;4239575;33;20054;-70
2022/11/22 05:17:40;;;;;;;48.20;16.50;;;;;;;0.52;100.00;97800.53;4240261;33;20053;-70
2022/11/22 05:20:08;;;;;;;66.22;19.08;;;;;;;0.35;100.00;97806.34;4225893;34;20035;-70
2022/11/22 05:25:20;;;;;;;62.40;19.60;;;;;;;0.45;100.00;97795.28;4239671;33;20046;-70
2022/11/22 05:27:46;;;;;;;63.03;19.12;;;;;;;1.20;100.00;97812.19;4239721;33;20060;-70
2022/11/22 05:30:13;;;;;;;60.15;21.37;;;;;;;1.18;100.00;97777.94;4238833;33;20393;-70
2022/11/22 05:32:39;;;;;;;57.25;19.10;;;;;;;0.94;100.00;97766.31;4237957;33;20413;-69
2022/11/22 05:35:06;;;;;;;56.92;16.45;;;;;;;1.00;100.00;97776.06;4224947;34;21291;-70
2022/11/22 05:37:32;;;;;;;55.17;18.20;;;;;;;0.61;100.00;97771.94;4224878;34;20380;-69
2022/11/22 05:39:59;;;;;;;50.85;17.55;;;;;;;1.38;100.00;97798.94;4225100;34;20074;-69
2022/11/22 05:42:25;;;;;;;69.43;24.40;;;;;;;0.75;100.00;97781.41;4224378;34;20199;-69
2022/11/22 05:44:51;;;;;;;69.45;23.77;;;;;;;1.04;100.00;97809.06;4223453;34;20039;-69
2022/11/22 05:47:18;;;;;;;63.15;22.67;;;;;;;0.97;100.00;97816.25;4232483;33;20093;-69
2022/11/22 05:49:45;;;;;;;63.15;19.05;;;;;;;1.00;100.00;97823.78;4233660;33;20056;-70
2022/11/22 05:52:11;;;;;;;65.20;22.02;;;;;;;1.09;100.00;97833.06;4222468;33;20445;-69
2022/11/22 05:54:38;;;;;;;65.75;22.00;;;;;;;0.72;100.00;97795.88;4225997;33;20109;-69
2022/11/22 05:57:05;;;;;;;67.03;20.00;;;;;;;0.90;100.00;97810.22;4223696;33;20443;-70
2022/11/22 05:59:31;;;;;;;59.92;18.52;;;;;;;0.86;100.00;97820.44;4226657;34;20829;-70
2022/11/22 06:02:04;;;;;;;58.47;19.33;;;;;;;0.91;100.00;97830.41;4225632;33;20050;-70
2022/11/22 06:04:30;;;;;;;61.30;20.85;;;;;;;0.85;100.00;97825.97;4224160;34;20366;-70
2022/11/22 06:06:57;;;;;;;63.30;19.02;;;;;;;1.14;100.00;97828.97;4260400;33;20041;-69
2022/11/22 06:09:23;;;;;;;63.97;19.27;;;;;;;0.74;100.00;97819.50;4270474;33;20058;-69
2022/11/22 06:11:50;;;;;;;71.18;21.87;;;;;;;0.94;100.00;97829.94;4262111;33;20050;-70
2022/11/22 06:14:16;;;;;;;69.18;22.37;;;;;;;0.81;100.00;97824.75;4269894;33;20063;-69
2022/11/22 06:16:43;;;;;;;54.88;18.85;;;;;;;0.89;100.00;97829.78;4270273;33;20072;-70
2022/11/22 06:19:11;;;;;;;52.75;19.48;;;;;;;0.98;100.00;97820.53;4259675;33;20076;-69
2022/11/22 06:21:38;;;;;;;69.15;22.45;;;;;;;1.01;100.00;97822.75;4265579;33;20069;-69
2022/11/22 06:24:05;;;;;;;57.38;18.35;;;;;;;0.91;100.00;97819.78;4240041;33;20034;-69
2022/11/22 06:26:32;;;;;;;60.67;20.23;;;;;;;0.81;100.00;97824.75;4210252;34;20044;-70
2022/11/22 06:28:58;;;;;;;49.80;17.65;;;;;;;0.71;100.00;97804.03;4210203;34;20036;-68
2022/11/22 06:31:26;;;;;;;68.12;20.02;;;;;;;0.61;100.00;97801.88;4211203;34;20065;-69
2022/11/22 06:33:54;;;;;;;58.03;20.67;;;;;;;1.23;100.00;97832.97;4211551;34;20108;-69
2022/11/22 06:36:23;;;;;;;73.07;22.65;;;;;;;1.24;100.00;97834.56;4211255;34;20067;-70
2022/11/22 06:38:51;;;;;;;56.95;20.37;;;;;;;1.36;100.00;97838.13;4211480;34;20069;-69
2022/11/22 06:43:56;;;;;;;57.72;17.73;;;;;;;1.51;100.00;97839.62;4211941;34;20038;-70
2022/11/22 06:46:25;;;;;;;65.62;18.67;;;;;;;1.06;100.00;97812.28;4175930;34;20056;-70
2022/11/22 06:48:52;;;;;;;61.20;20.92;;;;;;;1.74;100.00;97839.78;4185197;34;20043;-72
2022/11/22 06:51:20;;;;;;;70.28;20.00;;;;;;;1.34;100.00;97834.91;4182478;34;20047;-69
2022/11/22 06:53:48;;;;;;;57.58;17.73;;;;;;;1.26;100.00;97811.28;4127947;34;20045;-69
2022/11/22 06:56:25;;;;;;;54.67;18.23;;;;;;;1.31;100.00;97807.97;4139432;34;20071;-69
2022/11/22 06:58:52;;;;;;;59.92;21.37;;;;;;;1.59;100.00;97841.97;4185433;34;20056;-70
2022/11/22 07:01:22;;;;;;;57.85;19.42;;;;;;;1.25;100.00;97817.66;4181485;34;20082;-68
2022/11/22 07:03:48;;;;;;;47.60;16.55;;;;;;;1.28;100.00;97851.69;4172521;34;20047;-70
2022/11/22 07:06:18;;;;;;;51.83;19.65;;;;;;;1.17;100.00;97849.75;4168097;34;20104;-71
2022/11/22 07:08:44;;;;;;;64.75;21.33;;;;;;;1.53;100.00;97821.63;4168719;34;20460;-71
2022/11/22 07:11:13;;;;;;;48.80;18.10;;;;;;;1.18;100.00;97820.38;4167319;34;20079;-70
2022/11/22 07:13:40;;;;;;;56.35;21.40;;;;;;;1.46;100.00;97840.28;4167064;34;20057;-69
2022/11/22 07:16:09;;;;;;;60.03;19.55;;;;;;;1.26;100.00;97825.38;4169702;34;20939;-70
2022/11/22 07:18:35;;;;;;;48.20;18.48;;;;;;;1.67;100.00;97854.94;4198597;34;20035;-70
2022/11/22 07:21:05;;;;;;;57.08;18.35;;;;;;;1.31;100.00;97845.94;4198998;34;20073;-69
2022/11/22 07:23:31;;;;;;;67.95;20.55;;;;;;;1.56;100.00;97858.34;4199286;34;20047;-69
2022/11/22 07:25:58;;;;;;;56.25;21.25;;;;;;;1.36;100.00;97819.56;4254469;33;20046;-68
2022/11/22 07:28:25;;;;;;;58.85;22.85;;;;;;;1.43;100.00;97860.09;4257623;33;20069;-69
2022/11/22 07:30:52;;;;;;;50.55;19.83;;;;;;;1.38;100.00;97829.97;4256667;33;20049;-70
2022/11/22 07:33:18;;;;;;;54.53;20.05;;;;;;;1.42;100.00;97847.03;4256785;33;20192;-69
2022/11/22 07:35:45;;;;;;;49.38;18.45;;;;;;;1.12;100.00;97836.31;4256228;33;20047;-69
2022/11/22 07:38:11;;;;;;;49.22;18.50;;;;;;;1.47;100.00;97864.94;4256073;33;20038;-69
2022/11/22 07:40:38;;;;;;;45.40;18.08;;;;;;;1.31;100.00;97867.16;4256821;33;20445;-70
2022/11/22 07:43:04;;;;;;;54.40;18.90;;;;;;;1.06;100.00;97875.94;4256261;33;20102;-69
2022/11/22 07:45:31;;;;;;;57.53;18.77;;;;;;;1.40;100.00;97876.44;4256393;33;20046;-69
2022/11/22 07:48:00;;;;;;;56.20;22.55;;;;;;;1.54;100.00;97871.81;4251569;33;20035;-69
2022/11/22 07:50:28;;;;;;;52.45;18.52;;;;;;;1.67;100.00;97876.19;4253124;33;20075;-68
2022/11/22 07:52:57;;;;;;;51.10;19.30;;;;;;;1.62;100.00;97860.91;4252754;33;20038;-71
2022/11/22 07:55:25;;;;;;;56.00;21.00;;;;;;;1.86;100.00;97857.63;4252321;33;20053;-69
2022/11/22 07:57:52;;;;;;;52.35;19.48;;;;;;;1.74;100.00;97861.00;4251145;33;20035;-70
2022/11/22 08:00:19;;;;;;;66.45;26.25;;;;;;;1.45;100.00;97858.03;4255215;33;20091;-70
2022/11/22 08:02:46;;;;;;;61.17;23.17;;;;;;;1.38;100.00;97861.78;4267142;33;20107;-70
2022/11/22 08:05:13;;;;;;;64.22;20.85;;;;;;;1.42;100.00;97857.66;4266999;33;20067;-70
2022/11/22 08:07:45;;;;;;;48.42;19.08;;;;;;;1.80;100.00;97841.53;4267047;33;20479;-70
2022/11/22 08:10:13;;;;;;;61.97;20.65;;;;;;;1.68;100.00;97814.13;4209967;34;20047;-70
2022/11/22 08:12:40;;;;;;;48.92;21.02;;;;;;;1.88;100.00;97840.41;4196900;34;20203;-70
2022/11/22 08:15:14;;;;;;;52.05;20.83;;;;;;;1.32;100.00;97825.53;4196584;34;20168;-70
2022/11/22 08:17:42;;;;;;;50.72;21.20;;;;;;;1.32;100.00;97858.16;4197335;34;20041;-70
2022/11/22 08:20:10;;;;;;;56.50;20.60;;;;;;;1.38;100.00;97867.91;4195675;34;20050;-69
2022/11/22 08:22:39;;;;;;;48.05;21.67;;;;;;;1.56;100.00;97858.34;4196494;34;20027;-69
2022/11/22 08:25:11;;;;;;;55.47;19.67;;;;;;;1.54;100.00;97844.50;4196537;34;20081;-69
2022/11/22 08:27:39;;;;;;;52.08;19.17;;;;;;;1.34;100.00;97853.47;4196880;34;20039;-69
2022/11/22 08:30:06;;;;;;;57.90;18.70;;;;;;;1.32;100.00;97831.63;4196064;34;20069;-69
2022/11/22 08:32:33;;;;;;;52.78;22.45;;;;;;;1.72;100.00;97867.56;4196353;34;20040;-70
2022/11/22 08:35:01;;;;;;;56.55;22.33;;;;;;;1.21;100.00;97835.84;4197449;34;20057;-70
2022/11/22 08:37:28;;;;;;;65.12;22.50;;;;;;;1.17;100.00;97833.84;4196596;34;20432;-70
2022/11/22 08:40:01;;;;;;;68.72;23.75;;;;;;;1.61;100.00;97861.13;4192416;34;20043;-71
2022/11/22 08:42:28;;;;;;;52.65;20.50;;;;;;;1.73;100.00;97853.28;4181486;34;20098;-72
2022/11/22 08:44:55;;;;;;;66.78;24.42;;;;;;;2.10;100.00;97848.72;4176999;34;20048;-70
2022/11/22 08:47:21;;;;;;;65.15;26.48;;;;;;;1.90;100.00;97840.19;4196214;34;20034;-70
2022/11/22 08:49:49;;;;;;;66.25;23.90;;;;;;;1.59;100.00;97857.91;4222679;34;20400;-71
2022/11/22 08:52:16;;;;;;;56.75;23.10;;;;;;;1.93;100.00;97863.62;4219281;34;20051;-70
2022/11/22 08:54:43;;;;;;;52.88;19.17;;;;;;;1.89;100.00;97826.13;4216212;34;20418;-70
2022/11/22 08:57:09;;;;;;;64.85;24.12;;;;;;;2.26;100.00;97854.47;4222840;34;20061;-70
2022/11/22 08:59:36;;;;;;;66.45;23.85;;;;;;;1.92;100.00;97844.25;4222959;34;20426;-71
2022/11/22 09:02:02;;;;;;;64.25;21.35;;;;;;;1.83;100.00;97879.28;4222517;34;20080;-70
2022/11/22 09:04:29;;;;;;;59.70;22.23;;;;;;;1.90;100.00;97890.63;4215040;34;20199;-70
2022/11/22 09:06:56;;;;;;;65.25;23.12;;;;;;;1.92;100.00;97896.53;4219337;34;20031;-70
2022/11/22 09:09:22;;;;;;;45.95;20.52;;;;;;;1.81;100.00;97904.19;4220817;34;20064;-70
2022/11/22 09:11:55;;;;;;;54.88;21.83;;;;;;;1.54;100.00;97902.84;4220969;34;20449;-70
2022/11/22 09:14:22;;;;;;;60.55;21.37;;;;;;;1.91;100.00;97902.88;4232014;33;20056;-71
2022/11/22 09:16:48;;;;;;;56.08;22.65;;;;;;;2.12;100.00;97910.41;4221388;33;20050;-70
2022/11/22 09:19:15;;;;;;;59.67;23.60;;;;;;;2.05;100.00;97909.66;4231837;33;20046;-70
2022/11/22 09:21:42;;;;;;;55.63;23.83;;;;;;;1.95;100.00;97920.81;4236365;33;20400;-70
2022/11/22 09:24:08;;;;;;;54.28;22.20;;;;;;;1.54;100.00;97929.38;4235865;33;20404;-69
2022/11/22 09:26:35;;;;;;;50.63;21.80;;;;;;;1.50;100.00;97899.00;4235507;33;20089;-69
2022/11/22 09:29:02;;;;;;;51.45;21.95;;;;;;;1.71;100.00;97919.84;4231710;33;20078;-69
2022/11/22 09:31:30;;;;;;;45.60;21.05;;;;;;;1.91;100.00;97916.16;4236997;33;20060;-70
2022/11/22 09:33:57;;;;;;;38.53;18.10;;;;;;;2.04;100.00;97918.66;4233057;33;20034;-70
2022/11/22 09:36:27;;;;;;;50.70;22.40;;;;;;;1.67;100.00;97923.94;4237828;33;20426;-70
2022/11/22 09:38:57;;;;;;;53.87;22.50;;;;;;;1.25;100.00;97889.25;4238432;33;20093;-70
2022/11/22 09:41:45;;;;;;;44.55;20.98;;;;;;;1.43;100.00;97902.53;4237776;33;20510;-70
2022/11/22 09:44:37;;;;;;;45.20;18.35;;;;;;;1.49;100.00;97926.59;4236303;33;20447;-69
2022/11/22 09:47:06;;;;;;;44.58;19.08;;;;;;;2.00;100.00;97917.50;4241118;33;20038;-70
2022/11/22 09:49:39;;;;;;;48.25;19.75;;;;;;;2.07;100.00;97912.09;4269112;33;20037;-70
2022/11/22 09:52:05;;;;;;;;;;;;;;;2.29;100.00;97904.47;4260701;33;20433;-70
2022/11/22 09:54:50;;;;;;;55.88;24.50;;;;;;;2.31;100.00;97891.78;4247049;33;20703;-70
2022/11/22 09:57:22;;;;;;;55.63;24.67;;;;;;;2.28;100.00;97890.41;4251848;33;20076;-70
2022/11/22 10:00:00;;;;;;;57.72;23.77;;;;;;;2.16;100.00;97869.06;4251538;33;20038;-69
2022/11/22 10:02:34;;;;;;;57.60;23.80;;;;;;;2.54;100.00;97875.94;4233641;33;20042;-69
2022/11/22 10:05:11;;;;;;;44.60;19.60;;;;;;;2.75;100.00;97865.84;4238317;33;20105;-69
2022/11/22 10:07:42;;;;;;;56.28;25.85;;;;;;;2.97;100.00;97862.62;4236925;33;20410;-69
2022/11/22 10:10:24;;;;;;;42.47;18.87;;;;;;;2.78;100.00;97836.13;4238132;33;20055;-69
2022/11/22 10:13:01;;;;;;;46.35;20.33;;;;;;;2.71;100.00;97832.75;4235737;33;20540;-69
2022/11/22 10:15:50;;;;;;;48.38;19.55;;;;;;;2.34;100.00;97854.94;4232151;33;20042;-69
2022/11/22 10:18:19;;;;;;;43.90;20.45;;;;;;;2.83;100.00;97868.16;4236787;33;20356;-69
2022/11/22 10:20:46;;;;;;;46.28;20.55;;;;;;;2.75;100.00;97860.50;4221900;34;20056;-68
2022/11/22 10:23:20;;;;;;;49.95;20.42;;;;;;;2.95;100.00;97854.06;4221848;34;20065;-69
2022/11/22 10:25:57;;;;;;;43.97;17.42;;;;;;;3.05;100.00;97849.00;4227925;33;20059;-69
2022/11/22 10:28:48;;;;;;;45.63;19.00;;;;;;;2.77;100.00;97847.81;4218861;34;20080;-70
2022/11/22 10:31:26;;;;;;;45.37;22.50;;;;;;;2.79;100.00;97845.72;4195703;34;20059;-71
2022/11/22 10:34:10;;;;;;;50.53;20.40;;;;;;;2.85;100.00;97855.44;4214371;34;20047;-69
2022/11/22 10:36:57;;;;;;;49.85;22.00;;;;;;;2.61;100.00;97832.50;4222177;33;20046;-70
2022/11/22 10:39:56;;;;;;;44.38;19.52;;;;;;;2.20;100.00;97831.44;4221344;34;20340;-69
2022/11/22 10:42:41;;;;;;;55.17;21.33;;;;;;;3.00;100.00;97873.63;4218620;34;20047;-70
2022/11/22 10:45:25;;;;;;;49.67;22.13;;;;;;;2.58;100.00;97875.50;4217758;34;20047;-69
2022/11/22 10:48:03;;;;;;;50.92;23.23;;;;;;;2.26;100.00;97852.59;4221359;34;20086;-70
2022/11/22 10:51:27;;;;;;;49.75;19.40;;;;;;;2.09;100.00;97879.00;4221216;34;20129;-69
2022/11/22 10:54:15;;;;;;;49.90;19.10;;;;;;;2.39;100.00;97875.53;4205762;34;20081;-70
2022/11/22 10:56:59;;;;;;;35.63;16.50;;;;;;;2.30;100.00;97879.56;4231790;33;20058;-69
2022/11/22 10:59:47;;;;;;;54.92;20.00;;;;;;;2.12;100.00;97875.88;4233343;33;20041;-69
2022/11/22 11:02:47;;;;;;;42.58;19.33;;;;;;;2.43;100.00;97883.88;4232490;33;20172;-69
2022/11/22 11:05:18;;;;;;;52.53;20.30;;;;;;;2.69;100.00;97877.38;4228556;33;20133;-69
2022/11/22 11:07:52;;;;;;;50.17;19.05;;;;;;;2.57;100.00;97879.16;4233849;33;20358;-69
2022/11/22 11:10:25;;;;;;;44.33;19.15;;;;;;;2.01;100.00;97873.97;4199827;34;20057;-70
2022/11/22 11:13:06;;;;;;;44.53;18.25;;;;;;;2.32;100.00;97861.53;4190863;34;20514;-70
2022/11/22 11:15:34;;;;;;;49.50;18.52;;;;;;;2.57;100.00;97885.31;4187753;34;20463;-70
2022/11/22 11:18:07;;;;;;;49.03;18.25;;;;;;;2.60;100.00;97889.34;4194443;34;20104;-71
2022/11/22 11:20:37;;;;;;;42.38;18.10;;;;;;;2.52;100.00;97835.50;4184282;34;20507;-70
2022/11/22 11:23:03;;;;;;;53.13;20.70;;;;;;;2.60;100.00;97828.22;4186516;34;20044;-70
2022/11/22 11:25:39;;;;;;;51.50;19.25;;;;;;;2.14;100.00;97849.13;4197752;34;20498;-71
2022/11/22 11:28:16;;;;;;;45.40;18.80;;;;;;;2.45;100.00;97860.53;4168960;34;20036;-70
2022/11/22 11:31:07;;;;;;;38.28;15.15;;;;;;;2.32;100.00;97825.16;4169781;34;20075;-70
2022/11/22 11:33:37;;;;;;;49.15;19.95;;;;;;;3.18;100.00;97854.09;4165437;34;20070;-69
2022/11/22 11:36:12;;;;;;;52.95;21.83;;;;;;;3.30;100.00;97853.28;4165682;34;20116;-69
2022/11/22 11:38:39;;;;;;;61.75;19.50;;;;;;;3.33;100.00;97839.53;4171436;34;20039;-69
2022/11/22 11:41:17;;;;;;;58.20;18.65;;;;;;;3.22;100.00;97834.00;4176525;34;20046;-69
2022/11/22 11:43:44;;;;;;;49.38;17.60;;;;;;;3.14;100.00;97829.00;4203949;34;20315;-69
2022/11/22 11:46:23;;;;;;;56.97;20.60;;;;;;;2.54;100.00;97825.44;4210213;34;20406;-69
2022/11/22 11:48:54;;;;;;;54.55;20.35;;;;;;;2.77;100.00;97821.22;4217492;33;20047;-73
2022/11/22 11:51:23;;;;;;;44.63;18.47;;;;;;;2.97;100.00;97798.81;4218596;33;20461;-71
2022/11/22 11:54:02;;;;;;;49.67;19.27;;;;;;;2.85;100.00;97823.53;4218249;34;20112;-72
2022/11/22 11:56:39;;;;;;;45.22;18.60;;;;;;;3.10;100.00;97819.88;4215168;34;20258;-72
2022/11/22 11:59:12;;;;;;;43.90;16.65;;;;;;;3.01;100.00;97826.56;4213941;33;20054;-71
2022/11/22 12:01:52;;;;;;;41.58;17.35;;;;;;;2.39;100.00;97779.09;4351647;28;20198;-72
2022/11/22 12:04:25;;;;;;;46.75;18.23;;;;;;;3.08;100.00;97828.09;4210773;34;20036;-72
2022/11/22 12:07:01;;;;;;;40.85;17.77;;;;;;;3.03;100.00;97816.50;4248245;33;20414;-72
2022/11/22 12:09:31;;;;;;;52.13;21.33;;;;;;;2.89;100.00;97819.38;4241675;33;20616;-72
2022/11/22 12:12:06;;;;;;;50.65;22.25;;;;;;;2.67;100.00;97781.13;4250602;33;20093;-71
2022/11/22 12:14:33;;;;;;;47.55;19.02;;;;;;;2.83;100.00;97819.50;4250757;33;20038;-72
2022/11/22 12:17:09;;;;;;;56.20;24.23;;;;;;;3.07;100.00;97788.41;4253564;33;20141;-72
2022/11/22 12:20:01;;;;;;;59.63;21.25;;;;;;;3.11;100.00;97810.84;4263557;33;20059;-71
2022/11/22 12:22:57;;;;;;;40.90;19.08;;;;;;;3.41;100.00;97820.56;4258787;33;20054;-72
2022/11/22 12:25:34;;;;;;;53.53;19.50;;;;;;;3.46;100.00;97812.66;4264870;33;20042;-72
2022/11/22 12:28:16;;;;;;;48.85;20.65;;;;;;;3.21;100.00;97789.00;4266844;33;20084;-72
2022/11/22 12:30:48;;;;;;;55.15;20.52;;;;;;;3.17;100.00;97799.28;4258222;33;20079;-72
2022/11/22 12:33:23;;;;;;;54.30;22.95;;;;;;;3.07;100.00;97769.81;4252770;33;20367;-72
2022/11/22 12:35:54;;;;;;;54.88;22.45;;;;;;;2.95;100.00;97806.22;4257823;33;20049;-72
2022/11/22 12:38:26;;;;;;;57.75;25.35;;;;;;;3.43;100.00;97805.97;4266803;33;20411;-72
2022/11/22 12:40:57;;;;;;;58.75;22.02;;;;;;;2.90;100.00;97775.00;4261437;33;20756;-72
2022/11/22 12:43:29;;;;;;;60.33;21.90;;;;;;;2.75;100.00;97780.78;4260878;33;20053;-73
2022/11/22 12:46:00;;;;;;;54.78;24.83;;;;;;;3.07;100.00;97805.19;4259397;33;20045;-73
2022/11/22 12:48:33;;;;;;;45.90;20.25;;;;;;;3.22;100.00;97804.72;4255368;33;20071;-72
2022/11/22 12:51:22;;;;;;;44.75;20.45;;;;;;;3.36;100.00;97801.81;4258926;33;20058;-74
2022/11/22 12:53:50;;;;;;;38.22;17.67;;;;;;;3.18;100.00;97773.50;4263067;33;20456;-73
2022/11/22 12:56:19;;;;;;;40.85;19.20;;;;;;;3.41;100.00;97815.22;4251492;33;20481;-72
2022/11/22 12:58:58;;;;;;;43.78;19.20;;;;;;;2.95;100.00;97822.16;4255256;33;21002;-73
2022/11/22 13:01:51;;;;;;;45.28;19.85;;;;;;;2.95;100.00;97779.62;4261496;33;20466;-72
2022/11/22 13:04:28;;;;;;;35.55;17.08;;;;;;;2.79;100.00;97787.22;4256601;33;20058;-73
2022/11/22 13:07:14;;;;;;;41.17;18.80;;;;;;;2.59;100.00;97792.06;4267452;33;20149;-73
2022/11/22 13:09:48;;;;;;;37.20;18.80;;;;;;;2.72;100.00;97813.91;4251240;33;20076;-73
2022/11/22 13:12:25;;;;;;;40.40;18.67;;;;;;;2.96;100.00;97823.78;4230915;33;20042;-73
2022/11/22 13:14:54;;;;;;;35.78;15.73;;;;;;;2.94;100.00;97796.63;4234775;33;20038;-72
2022/11/22 13:17:23;;;;;;;45.05;20.35;;;;;;;3.18;100.00;97827.50;4237984;33;20062;-72
2022/11/22 13:19:53;;;;;;;42.72;19.90;;;;;;;3.08;100.00;97822.75;4237606;33;20127;-73
2022/11/22 13:22:32;;;;;;;43.78;18.60;;;;;;;3.17;100.00;97793.94;4238548;33;20100;-73
2022/11/22 13:25:10;;;;;;;37.47;18.02;;;;;;;3.22;100.00;97794.09;4235798;33;20063;-72
2022/11/22 13:27:45;;;;;;;40.00;20.10;;;;;;;3.49;100.00;97817.53;4225731;33;20065;-72
2022/11/22 13:30:23;;;;;;;38.28;17.48;;;;;;;3.16;100.00;97818.12;4224497;33;20085;-71
2022/11/22 13:32:56;;;;;;;41.80;18.52;;;;;;;2.93;100.00;97808.31;4233159;33;20380;-73
2022/11/22 13:35:36;;;;;;;40.60;18.23;;;;;;;2.98;100.00;97816.38;4236972;33;20056;-72
2022/11/22 13:38:15;;;;;;;41.92;18.02;;;;;;;2.71;100.00;97817.62;4233319;33;20068;-72
2022/11/22 13:40:49;;;;;;;45.42;18.27;;;;;;;2.69;100.00;97813.56;4233204;33;20378;-72
2022/11/22 13:43:15;;;;;;;39.65;17.27;;;;;;;2.74;100.00;97805.72;4250546;33;20071;-71
2022/11/22 13:45:54;;;;;;;36.97;17.73;;;;;;;2.59;100.00;97803.50;4209927;34;20078;-71
2022/11/22 13:48:38;;;;;;;39.13;17.60;;;;;;;2.77;100.00;97784.00;4195308;34;20032;-70
2022/11/22 13:51:06;;;;;;;39.80;18.40;;;;;;;2.56;100.00;97792.53;4200102;34;20047;-71